createdAt,value
2022-09-14T00:01:14.451Z,2.83
2022-09-14T00:03:39.701Z,1.80
2022-09-14T00:06:08.432Z,1.85
2022-09-14T00:08:35.870Z,1.38
2022-09-14T00:11:13.871Z,1.73
2022-09-14T00:13:42.718Z,1.48
2022-09-14T00:16:17.668Z,1.75
2022-09-14T00:18:44.482Z,2.22
2022-09-14T00:21:12.765Z,2.10
2022-09-14T00:23:41.277Z,1.75
2022-09-14T00:26:14.278Z,1.42
2022-09-14T00:28:43.083Z,1.50
2022-09-14T00:31:10.375Z,1.42
2022-09-14T00:33:38.299Z,1.80
2022-09-14T00:36:13.719Z,2.03
2022-09-14T00:38:41.756Z,1.98
2022-09-14T00:41:12.646Z,1.67
2022-09-14T00:44:09.931Z,1.30
2022-09-14T00:46:43.237Z,1.42
2022-09-14T00:49:17.933Z,1.40
2022-09-14T00:51:55.901Z,1.63
2022-09-14T00:54:22.425Z,1.48
2022-09-14T00:56:49.659Z,2.20
2022-09-14T00:59:26.476Z,1.85
2022-09-14T01:01:53.341Z,1.98
2022-09-14T01:04:19.827Z,1.33
2022-09-14T01:07:00.712Z,1.45
2022-09-14T01:09:56.967Z,1.27
2022-09-14T01:12:40.134Z,1.73
2022-09-14T01:15:19.022Z,1.50
2022-09-14T01:17:57.746Z,1.17
2022-09-14T01:20:27.224Z,1.83
2022-09-14T01:23:09.930Z,1.38
2022-09-14T01:25:36.287Z,1.30
2022-09-14T01:28:10.078Z,1.23
2022-09-14T01:30:41.448Z,2.58
2022-09-14T01:33:15.054Z,1.58
2022-09-14T01:35:50.483Z,1.60
2022-09-14T01:38:40.240Z,1.75
2022-09-14T01:41:10.910Z,1.63
2022-09-14T01:44:13.533Z,1.80
2022-09-14T01:47:05.214Z,1.45
2022-09-14T01:49:39.441Z,1.67
2022-09-14T01:52:12.820Z,2.85
2022-09-14T01:54:49.494Z,1.83
2022-09-14T01:57:21.560Z,2.40
2022-09-14T01:59:50.848Z,1.33
2022-09-14T02:02:24.767Z,1.70
2022-09-14T02:05:02.552Z,1.60
2022-09-14T02:07:29.524Z,1.75
2022-09-14T02:09:56.415Z,1.70
2022-09-14T02:12:23.199Z,1.30
2022-09-14T02:14:53.495Z,1.20
2022-09-14T02:17:20.727Z,1.60
2022-09-14T02:19:52.203Z,2.00
2022-09-14T02:22:18.610Z,2.08
2022-09-14T02:24:45.048Z,1.13
2022-09-14T02:27:11.528Z,1.60
2022-09-14T02:29:38.307Z,1.70
2022-09-14T02:32:10.805Z,1.52
2022-09-14T02:34:51.846Z,1.25
2022-09-14T02:37:24.974Z,1.45
2022-09-14T02:40:09.200Z,2.03
2022-09-14T02:42:42.698Z,1.90
2022-09-14T02:45:28.976Z,1.80
2022-09-14T02:48:18.247Z,1.67
2022-09-14T02:51:09.143Z,1.70
2022-09-14T02:53:38.541Z,1.48
2022-09-14T02:56:08.906Z,1.60
2022-09-14T02:58:40.737Z,1.80
2022-09-14T03:01:09.160Z,1.42
2022-09-14T03:03:36.027Z,1.63
2022-09-14T03:06:03.153Z,2.10
2022-09-14T03:08:29.862Z,2.33
2022-09-14T03:10:56.849Z,1.48
2022-09-14T03:13:23.381Z,1.50
2022-09-14T03:15:49.833Z,1.67
2022-09-14T03:18:16.436Z,2.10
2022-09-14T03:20:43.611Z,1.80
2022-09-14T03:23:11.218Z,1.75
2022-09-14T03:25:44.531Z,1.73
2022-09-14T03:28:12.510Z,1.40
2022-09-14T03:30:39.291Z,1.80
2022-09-14T03:33:06.072Z,2.25
2022-09-14T03:35:33.691Z,1.50
2022-09-14T03:38:02.989Z,1.48
2022-09-14T03:40:29.496Z,1.73
2022-09-14T03:42:55.935Z,1.77
2022-09-14T03:45:22.617Z,1.80
2022-09-14T03:47:49.865Z,1.63
2022-09-14T03:50:17.880Z,1.40
2022-09-14T03:52:44.646Z,2.15
2022-09-14T03:55:11.706Z,2.13
2022-09-14T03:57:38.536Z,1.95
2022-09-14T04:00:06.557Z,1.92
2022-09-14T04:02:33.007Z,1.83
2022-09-14T04:04:59.532Z,1.77
2022-09-14T04:07:26.264Z,1.80
2022-09-14T04:09:52.659Z,2.13
2022-09-14T04:12:19.062Z,1.80
2022-09-14T04:14:45.559Z,1.90
2022-09-14T04:17:11.971Z,1.50
2022-09-14T04:19:38.526Z,1.98
2022-09-14T04:22:05.342Z,2.10
2022-09-14T04:24:31.811Z,2.45
2022-09-14T04:26:58.570Z,1.65
2022-09-14T04:29:25.459Z,2.08
2022-09-14T04:31:51.998Z,3.35
2022-09-14T04:34:18.480Z,2.20
2022-09-14T04:36:44.910Z,2.33
2022-09-14T04:39:13.664Z,3.00
2022-09-14T04:41:40.507Z,2.70
2022-09-14T04:44:06.935Z,2.70
2022-09-14T04:46:45.102Z,2.45
2022-09-14T04:49:12.972Z,2.50
2022-09-14T04:51:39.622Z,2.00
2022-09-14T04:54:07.441Z,2.30
2022-09-14T04:56:36.795Z,2.30
2022-09-14T04:59:04.550Z,1.85
2022-09-14T05:01:34.301Z,3.67
2022-09-14T05:04:01.075Z,2.13
2022-09-14T05:06:30.366Z,1.75
2022-09-14T05:08:59.863Z,1.85
2022-09-14T05:11:30.118Z,2.20
2022-09-14T05:13:57.965Z,2.03
2022-09-14T05:16:33.022Z,2.40
2022-09-14T05:19:02.015Z,3.00
2022-09-14T05:21:30.079Z,1.98
2022-09-14T05:23:58.846Z,2.42
2022-09-14T05:26:27.078Z,2.13
2022-09-14T05:28:55.929Z,2.10
2022-09-14T05:31:26.374Z,2.13
2022-09-14T05:33:53.283Z,3.20
2022-09-14T05:36:20.211Z,2.58
2022-09-14T05:38:46.851Z,2.25
2022-09-14T05:41:14.679Z,2.22
2022-09-14T05:43:41.858Z,2.60
2022-09-14T05:46:12.011Z,2.83
2022-09-14T05:48:39.557Z,3.08
2022-09-14T05:51:15.674Z,2.42
2022-09-14T05:53:52.448Z,2.70
2022-09-14T05:56:21.300Z,2.70
2022-09-14T05:58:48.682Z,3.20
2022-09-14T06:01:15.020Z,2.67
2022-09-14T06:03:42.666Z,3.97
2022-09-14T06:06:12.517Z,2.53
2022-09-14T06:08:39.895Z,2.88
2022-09-14T06:11:09.095Z,4.13
2022-09-14T06:13:36.871Z,3.13
2022-09-14T06:16:08.764Z,3.10
2022-09-14T06:18:36.611Z,2.78
2022-09-14T06:21:04.529Z,3.60
2022-09-14T06:23:32.121Z,2.90
2022-09-14T06:26:00.707Z,3.20
2022-09-14T06:28:28.408Z,3.20
2022-09-14T06:30:55.175Z,2.70
2022-09-14T06:33:22.111Z,2.70
2022-09-14T06:35:58.629Z,2.28
2022-09-14T06:38:25.709Z,2.53
2022-09-14T06:41:00.393Z,2.83
2022-09-14T06:43:30.050Z,2.88
2022-09-14T06:45:56.397Z,3.40
2022-09-14T06:48:22.988Z,2.20
2022-09-14T06:50:49.361Z,2.78
2022-09-14T06:53:15.821Z,2.20
2022-09-14T06:55:44.637Z,2.40
2022-09-14T06:58:11.507Z,2.50
2022-09-14T07:00:37.986Z,2.95
2022-09-14T07:03:04.709Z,2.42
2022-09-14T07:05:31.208Z,2.00
2022-09-14T07:07:57.774Z,3.35
2022-09-14T07:10:27.992Z,2.55
2022-09-14T07:12:55.393Z,2.97
2022-09-14T07:15:22.468Z,2.63
2022-09-14T07:17:49.037Z,2.22
2022-09-14T07:20:15.736Z,3.30
2022-09-14T07:22:43.016Z,3.28
2022-09-14T07:25:10.386Z,2.42
2022-09-14T07:27:39.394Z,3.20
2022-09-14T07:30:07.363Z,2.65
2022-09-14T07:32:33.820Z,3.58
2022-09-14T07:35:00.763Z,2.88
2022-09-14T07:37:27.182Z,3.95
2022-09-14T07:39:54.137Z,2.70
2022-09-14T07:42:20.766Z,2.63
2022-09-14T07:44:47.190Z,3.05
2022-09-14T07:47:13.703Z,5.18
2022-09-14T07:49:40.123Z,2.50
2022-09-14T07:52:06.704Z,2.45
2022-09-14T07:54:34.440Z,4.05
2022-09-14T07:57:00.929Z,2.40
2022-09-14T07:59:37.020Z,2.95
2022-09-14T08:02:08.856Z,2.60
2022-09-14T08:04:36.251Z,3.20
2022-09-14T08:07:03.409Z,3.25
2022-09-14T08:09:30.063Z,2.97
2022-09-14T08:11:57.188Z,3.53
2022-09-14T08:14:24.072Z,3.50
2022-09-14T08:16:50.589Z,4.10
2022-09-14T08:19:20.330Z,4.15
2022-09-14T08:21:47.929Z,3.33
2022-09-14T08:24:17.664Z,3.78
2022-09-14T08:26:44.465Z,4.28
2022-09-14T08:29:13.471Z,3.50
2022-09-14T08:31:40.574Z,3.55
2022-09-14T08:34:08.251Z,2.92
2022-09-14T08:36:37.270Z,2.70
2022-09-14T08:39:06.284Z,3.15
2022-09-14T08:41:41.063Z,3.40
2022-09-14T08:44:40.741Z,3.13
2022-09-14T08:47:13.783Z,2.83
2022-09-14T08:49:49.308Z,2.85
2022-09-14T08:52:22.889Z,3.20
2022-09-14T08:54:53.621Z,3.17
2022-09-14T08:57:27.382Z,3.70
2022-09-14T09:00:13.096Z,3.67
2022-09-14T09:05:27.714Z,2.97
2022-09-14T09:08:12.965Z,3.35
2022-09-14T09:10:40.821Z,3.42
2022-09-14T09:13:13.784Z,3.17
2022-09-14T09:16:04.651Z,4.45
2022-09-14T09:19:09.715Z,3.33
2022-09-14T09:21:43.740Z,3.55
2022-09-14T09:24:38.674Z,3.42
2022-09-14T09:27:10.997Z,3.80
2022-09-14T09:29:37.577Z,3.33
2022-09-14T09:32:05.821Z,2.75
2022-09-14T09:34:35.306Z,2.67
2022-09-14T09:37:01.923Z,3.42
2022-09-14T09:39:31.886Z,3.50
2022-09-14T09:42:06.652Z,3.05
2022-09-14T09:45:03.347Z,3.28
2022-09-14T09:47:48.435Z,3.00
2022-09-14T09:50:15.181Z,4.18
2022-09-14T09:52:58.100Z,3.80
2022-09-14T09:55:31.441Z,4.38
2022-09-14T09:58:17.797Z,4.97
2022-09-14T10:01:02.442Z,6.32
2022-09-14T10:03:39.848Z,6.30
2022-09-14T10:06:12.439Z,7.22
2022-09-14T10:08:44.850Z,8.50
2022-09-14T10:11:33.721Z,8.32
2022-09-14T10:14:00.577Z,7.93
2022-09-14T10:16:34.612Z,8.63
2022-09-14T10:19:03.169Z,8.77
2022-09-14T10:21:31.283Z,8.90
2022-09-14T10:24:20.444Z,8.70
2022-09-14T10:26:46.894Z,8.02
2022-09-14T10:29:32.655Z,8.95
2022-09-14T10:34:32.927Z,7.03
2022-09-14T10:37:18.700Z,6.93
2022-09-14T10:42:40.783Z,6.80
2022-09-14T10:45:30.108Z,5.72
2022-09-14T10:48:06.272Z,5.75
2022-09-14T10:51:02.151Z,6.32
2022-09-14T10:53:31.539Z,5.68
2022-09-14T10:56:01.734Z,5.40
2022-09-14T10:58:49.626Z,5.43
2022-09-14T11:01:26.230Z,4.88
2022-09-14T11:04:31.961Z,5.13
2022-09-14T11:07:13.334Z,5.43
2022-09-14T11:10:01.729Z,5.93
2022-09-14T11:12:45.067Z,4.88
2022-09-14T11:15:21.289Z,4.28
2022-09-14T11:18:15.216Z,4.22
2022-09-14T11:20:44.700Z,3.05
2022-09-14T11:23:40.673Z,3.42
2022-09-14T11:26:21.004Z,2.58
2022-09-14T11:29:08.605Z,2.40
2022-09-14T11:31:42.055Z,1.70
2022-09-14T11:34:17.941Z,2.35
2022-09-14T11:36:48.524Z,1.70
2022-09-14T11:39:21.504Z,2.30
2022-09-14T11:42:08.201Z,2.13
2022-09-14T11:44:38.571Z,2.47
2022-09-14T11:47:19.155Z,1.92
2022-09-14T11:50:08.039Z,1.83
2022-09-14T11:52:34.860Z,2.05
2022-09-14T11:55:02.923Z,2.35
2022-09-14T11:57:32.006Z,2.38
2022-09-14T12:00:10.389Z,1.88
2022-09-14T12:02:36.926Z,2.13
2022-09-14T12:05:06.271Z,2.20
2022-09-14T12:07:44.483Z,2.40
2022-09-14T12:10:14.182Z,2.25
2022-09-14T12:13:02.669Z,2.40
2022-09-14T12:15:29.110Z,2.25
2022-09-14T12:18:07.702Z,2.10
2022-09-14T12:20:52.775Z,1.88
2022-09-14T12:23:27.158Z,1.98
2022-09-14T12:26:05.950Z,2.60
2022-09-14T12:28:35.395Z,2.63
2022-09-14T12:31:02.781Z,2.60
2022-09-14T12:33:31.979Z,2.85
2022-09-14T12:36:06.118Z,3.05
2022-09-14T12:38:38.466Z,3.63
2022-09-14T12:41:08.026Z,3.47
2022-09-14T12:43:37.549Z,2.78
2022-09-14T12:46:20.090Z,3.00
2022-09-14T12:48:49.298Z,2.97
2022-09-14T12:51:25.023Z,3.38
2022-09-14T12:54:09.667Z,3.30
2022-09-14T12:56:54.202Z,3.58
2022-09-14T12:59:39.678Z,3.67
2022-09-14T13:02:11.947Z,3.70
2022-09-14T13:04:41.862Z,3.75
2022-09-14T13:07:16.167Z,4.70
2022-09-14T13:09:48.871Z,4.72
2022-09-14T13:12:23.880Z,4.15
2022-09-14T13:14:58.256Z,4.75
2022-09-14T13:17:25.131Z,5.00
2022-09-14T13:20:02.713Z,5.32
2022-09-14T13:22:31.777Z,4.72
2022-09-14T13:25:01.311Z,5.47
2022-09-14T13:27:37.159Z,5.10
2022-09-14T13:30:19.131Z,4.90
2022-09-14T13:32:49.051Z,4.70
2022-09-14T13:35:27.532Z,5.75
2022-09-14T13:37:55.040Z,5.20
2022-09-14T13:40:28.532Z,5.47
2022-09-14T13:42:56.838Z,5.65
2022-09-14T13:45:24.327Z,6.13
2022-09-14T13:47:52.304Z,5.63
2022-09-14T13:50:21.995Z,5.03
2022-09-14T13:53:01.773Z,5.93
2022-09-14T13:55:32.038Z,5.40
2022-09-14T13:58:07.506Z,6.07
2022-09-14T14:00:52.946Z,5.63
2022-09-14T14:03:41.494Z,6.28
2022-09-14T14:06:23.669Z,6.00
2022-09-14T14:08:54.382Z,5.03
2022-09-14T14:11:34.103Z,5.22
2022-09-14T14:14:31.531Z,5.63
2022-09-14T14:17:13.076Z,5.20
2022-09-14T14:19:40.521Z,5.75
2022-09-14T14:22:17.796Z,5.47
2022-09-14T14:25:11.803Z,3.90
2022-09-14T14:27:32.949Z,3.40
2022-09-14T14:30:01.886Z,3.63
2022-09-14T14:32:29.346Z,4.07
2022-09-14T14:34:56.129Z,3.72
2022-09-14T14:37:22.919Z,3.40
2022-09-14T14:39:49.856Z,3.20
2022-09-14T14:42:16.718Z,3.45
2022-09-14T14:44:44.243Z,3.67
2022-09-14T14:47:13.175Z,2.88
2022-09-14T14:49:39.736Z,2.75
2022-09-14T14:52:06.781Z,2.95
2022-09-14T14:54:33.295Z,3.03
2022-09-14T14:56:59.712Z,3.60
2022-09-14T14:59:29.375Z,3.60
2022-09-14T15:01:57.189Z,3.92
2022-09-14T15:04:24.226Z,3.50
2022-09-14T15:06:50.700Z,3.78
2022-09-14T15:09:27.291Z,3.17
2022-09-14T15:11:54.702Z,4.28
2022-09-14T15:14:26.954Z,3.60
2022-09-14T15:16:57.923Z,3.30
2022-09-14T15:19:24.877Z,3.50
2022-09-14T15:21:51.354Z,3.40
2022-09-14T15:24:17.892Z,3.42
2022-09-14T15:26:44.310Z,3.58
2022-09-14T15:29:14.584Z,3.42
2022-09-14T15:31:41.086Z,4.28
2022-09-14T15:34:07.560Z,3.60
2022-09-14T15:36:51.021Z,3.63
2022-09-14T15:39:25.922Z,3.42
2022-09-14T15:41:55.178Z,4.13
2022-09-14T15:44:22.112Z,4.40
2022-09-14T15:46:49.055Z,3.78
2022-09-14T15:49:18.793Z,3.85
2022-09-14T15:51:47.012Z,3.92
2022-09-14T15:54:13.983Z,3.85
2022-09-14T15:56:40.603Z,3.67
2022-09-14T15:59:07.035Z,4.45
2022-09-14T16:01:33.522Z,3.45
2022-09-14T16:04:02.328Z,4.10
2022-09-14T16:06:29.284Z,3.50
2022-09-14T16:08:57.557Z,3.03
2022-09-14T16:11:24.644Z,2.80
2022-09-14T16:13:51.411Z,3.53
2022-09-14T16:16:19.158Z,3.28
2022-09-14T16:18:47.064Z,3.67
2022-09-14T16:21:25.943Z,3.03
2022-09-14T16:23:55.179Z,2.78
2022-09-14T16:26:27.355Z,2.72
2022-09-14T16:28:54.889Z,3.03
2022-09-14T16:31:33.246Z,2.42
2022-09-14T16:34:02.824Z,2.70
2022-09-14T16:36:32.401Z,2.50
2022-09-14T16:39:01.211Z,2.67
2022-09-14T16:41:28.778Z,2.95
2022-09-14T16:43:56.068Z,3.85
2022-09-14T16:46:22.893Z,2.80
2022-09-14T16:48:50.211Z,2.60
2022-09-14T16:51:20.354Z,2.30
2022-09-14T16:53:48.248Z,2.22
2022-09-14T16:56:22.292Z,2.40
2022-09-14T16:58:51.109Z,2.72
2022-09-14T17:01:18.951Z,3.00
2022-09-14T17:03:47.145Z,2.63
2022-09-14T17:06:19.439Z,3.08
2022-09-14T17:08:46.687Z,3.25
2022-09-14T17:11:14.639Z,3.63
2022-09-14T17:13:43.299Z,2.90
2022-09-14T17:16:13.900Z,3.10
2022-09-14T17:18:43.040Z,3.38
2022-09-14T17:21:13.577Z,3.80
2022-09-14T17:23:41.375Z,3.78
2022-09-14T17:26:09.963Z,4.50
2022-09-14T17:28:37.616Z,3.38
2022-09-14T17:31:06.695Z,3.85
2022-09-14T17:33:35.546Z,4.20
2022-09-14T17:36:04.630Z,3.60
2022-09-14T17:38:41.978Z,4.68
2022-09-14T17:41:15.097Z,4.10
2022-09-14T17:43:42.701Z,4.35
2022-09-14T17:46:14.347Z,4.00
2022-09-14T17:48:42.480Z,4.40
2022-09-14T17:51:15.789Z,5.10
2022-09-14T17:53:44.532Z,4.47
2022-09-14T17:56:13.125Z,4.70
2022-09-14T17:58:40.379Z,5.32
2022-09-14T18:01:09.102Z,5.15
2022-09-14T18:03:37.746Z,5.20
2022-09-14T18:06:06.422Z,5.57
2022-09-14T18:08:32.882Z,5.10
2022-09-14T18:11:17.243Z,6.10
2022-09-14T18:13:46.472Z,6.47
2022-09-14T18:16:15.147Z,5.47
2022-09-14T18:18:42.473Z,5.28
2022-09-14T18:21:09.897Z,5.70
2022-09-14T18:23:36.688Z,6.28
2022-09-14T18:26:05.451Z,6.43
2022-09-14T18:28:32.649Z,6.80
2022-09-14T18:31:03.775Z,7.15
2022-09-14T18:33:30.341Z,7.30
2022-09-14T18:35:57.162Z,7.53
2022-09-14T18:38:23.878Z,8.88
2022-09-14T18:40:50.813Z,7.93
2022-09-14T18:43:17.360Z,7.70
2022-09-14T18:45:45.242Z,7.70
2022-09-14T18:48:12.306Z,7.18
2022-09-14T18:50:40.039Z,8.40
2022-09-14T18:53:06.698Z,8.15
2022-09-14T18:55:33.768Z,8.95
2022-09-14T18:58:00.878Z,7.50
2022-09-14T19:00:28.043Z,8.95
2022-09-14T19:02:56.338Z,8.57
2022-09-14T19:05:24.655Z,8.80
2022-09-14T19:07:52.056Z,9.35
2022-09-14T19:10:18.724Z,9.52
2022-09-14T19:12:45.219Z,9.13
2022-09-14T19:15:12.127Z,8.90
2022-09-14T19:17:38.821Z,10.00
2022-09-14T19:20:08.112Z,9.18
2022-09-14T19:22:34.768Z,9.68
2022-09-14T19:25:01.219Z,9.48
2022-09-14T19:27:27.676Z,10.07
2022-09-14T19:29:54.168Z,10.50
2022-09-14T19:32:20.590Z,10.18
2022-09-14T19:34:47.064Z,10.23
2022-09-14T19:37:13.564Z,10.45
2022-09-14T19:39:42.157Z,10.10
2022-09-14T19:42:08.586Z,10.90
2022-09-14T19:44:34.966Z,10.55
2022-09-14T19:47:01.990Z,9.90
2022-09-14T19:49:28.442Z,10.63
2022-09-14T19:51:56.099Z,10.82
2022-09-14T19:54:22.956Z,10.38
2022-09-14T19:56:49.423Z,9.05
2022-09-14T19:59:16.682Z,9.27
2022-09-14T20:01:44.029Z,10.02
2022-09-14T20:04:10.988Z,10.10
2022-09-14T20:06:41.019Z,9.57
2022-09-14T20:09:12.067Z,10.15
2022-09-14T20:11:40.036Z,10.77
2022-09-14T20:14:09.557Z,10.45
2022-09-14T20:16:38.716Z,10.43
2022-09-14T20:19:10.861Z,10.07
2022-09-14T20:21:37.998Z,11.30
2022-09-14T20:24:22.087Z,9.80
2022-09-14T20:26:50.450Z,10.65
2022-09-14T20:29:18.602Z,10.85
2022-09-14T20:31:46.196Z,10.35
2022-09-14T20:34:14.116Z,10.40
2022-09-14T20:36:41.269Z,11.30
2022-09-14T20:39:08.153Z,11.63
2022-09-14T20:41:35.763Z,10.90
2022-09-14T20:44:03.495Z,11.38
2022-09-14T20:46:35.533Z,10.30
2022-09-14T20:49:04.480Z,10.65
2022-09-14T20:51:31.740Z,11.32
2022-09-14T20:53:58.296Z,10.52
2022-09-14T20:56:27.850Z,10.43
2022-09-14T20:58:57.460Z,10.27
2022-09-14T21:01:27.599Z,11.57
2022-09-14T21:03:55.053Z,11.23
2022-09-14T21:06:24.068Z,10.43
2022-09-14T21:08:51.295Z,10.65
2022-09-14T21:11:20.326Z,10.27
2022-09-14T21:13:47.000Z,11.40
2022-09-14T21:16:18.999Z,10.85
2022-09-14T21:18:47.017Z,12.25
2022-09-14T21:21:15.398Z,12.77
2022-09-14T21:23:42.603Z,11.43
2022-09-14T21:26:11.307Z,11.77
2022-09-14T21:28:39.803Z,11.43
2022-09-14T21:31:10.602Z,12.32
2022-09-14T21:33:38.948Z,11.55
2022-09-14T21:36:08.327Z,11.73
2022-09-14T21:38:35.936Z,10.23
2022-09-14T21:41:04.858Z,10.68
2022-09-14T21:43:31.255Z,11.00
2022-09-14T21:45:59.110Z,12.07
2022-09-14T21:48:26.355Z,10.93
2022-09-14T21:51:05.384Z,10.40
2022-09-14T21:53:32.591Z,11.02
2022-09-14T21:55:59.035Z,12.57
2022-09-14T21:58:25.753Z,10.20
2022-09-14T22:00:59.915Z,10.38
2022-09-14T22:03:26.904Z,10.52
2022-09-14T22:05:58.988Z,9.80
2022-09-14T22:08:26.550Z,10.85
2022-09-14T22:10:52.957Z,9.93
2022-09-14T22:13:19.508Z,11.23
2022-09-14T22:15:46.804Z,10.80
2022-09-14T22:18:14.228Z,11.30
2022-09-14T22:20:41.339Z,11.85
2022-09-14T22:23:07.803Z,12.25
2022-09-14T22:25:39.408Z,12.63
2022-09-14T22:28:05.886Z,12.55
2022-09-14T22:30:32.341Z,13.52
2022-09-14T22:32:58.814Z,14.32
2022-09-14T22:35:25.221Z,14.63
2022-09-14T22:37:51.620Z,14.52
2022-09-14T22:40:18.099Z,14.45
2022-09-14T22:42:44.627Z,16.60
2022-09-14T22:45:11.083Z,16.92
2022-09-14T22:47:37.525Z,15.80
2022-09-14T22:50:04.200Z,16.27
2022-09-14T22:52:30.609Z,15.77
2022-09-14T22:54:57.067Z,16.38
2022-09-14T22:57:23.908Z,15.55
2022-09-14T22:59:50.309Z,16.40
2022-09-14T23:02:16.828Z,13.57
2022-09-14T23:04:43.938Z,13.60
2022-09-14T23:07:10.401Z,15.48
2022-09-14T23:09:37.393Z,14.75
2022-09-14T23:12:03.919Z,14.80
2022-09-14T23:14:31.540Z,12.20
2022-09-14T23:16:57.944Z,12.20
2022-09-14T23:19:24.739Z,13.88
2022-09-14T23:21:51.320Z,13.75
2022-09-14T23:24:17.819Z,13.57
2022-09-14T23:26:44.261Z,13.32
2022-09-14T23:29:15.322Z,12.40
2022-09-14T23:31:41.775Z,13.18
2022-09-14T23:34:08.538Z,13.98
2022-09-14T23:36:35.406Z,13.88
2022-09-14T23:39:02.475Z,14.63
2022-09-14T23:41:28.997Z,14.98
2022-09-14T23:43:55.499Z,14.35
2022-09-14T23:46:22.451Z,14.73
2022-09-14T23:48:49.237Z,14.65
2022-09-14T23:51:16.390Z,14.02
2022-09-14T23:53:43.230Z,14.07
2022-09-14T23:56:10.463Z,14.48
2022-09-14T23:58:37.291Z,14.73
